Airfield :
LOGIN :

Register | Disclaimer

   EN    FR    IT 

 










Legend :    VFR   Marginal VFR   IFR   Intensive IFR   Very Intensive IFR
Visi :
Ceiling :
>= 8 km
>= 3000ft
5 to 8 km
1000 to 3000 ft
1500m to 5 km
500 to 1000 ft
800 to 1500m
200 to 500 ft
< 800m
< 200 ft
Symbols :   Thunderstorms  Fog  Heavy snow  Heavy precipitations  Wind > 20 kt
SIGMETs :     Misc.  Thunderstorms  Icing  Turbulence  Mountain Waves  Volcanic Ashes






- Airport Elevation : 6 ft
- IATA code : PSA


LIRP - Galileo Galilei Pisa

CURRENT METAR :
  • 031415Z 23009KT 9999 SCT030 27/14 Q1015 NOSIG

EXPIRED METARs :
  • 031345Z 23009KT 9999 SCT040 27/14 Q1015 NOSIG
  • 031315Z 23009KT 9999 SCT040 27/14 Q1015 NOSIG
  • 031245Z 24012KT 9999 FEW030 27/13 Q1015 NOSIG
  • 031215Z 23010KT 9999 FEW030 28/12 Q1015 NOSIG
  • 031145Z 24008KT 9999 FEW030 28/14 Q1015 NOSIG

TAF TAF LIRP
Valid from the 03 at 12:00 until the 04 at 12:00 UTC


031100Z 0312/0412 24010KT CAVOK
BECMG 0318/0320 11004KT
BECMG 0409/0411 24010KT



MET'MAP, your aeronautical weather chart ! - Copyright ORBIFLY December 2007 - Disclaimer

ORBIFLY MET'MAP TEAM :

Programming & Development : Alexandra Zaïnal
Concept & original design : Baudouin d'Aumeries
Assistance for programming : Marc-Olivier Méhu
Technical & hardware support : Manuel Goepfert

Contact : metmap@orbifly.com




SOURCES & CREDITS :

   NOAA